sensor_id;sensor_type;location;lat;lon;timestamp;temperature;humidity
14409;DHT22;7289;50.706;4.992;2023-01-26T00:02:24;0.60;99.90
14409;DHT22;7289;50.706;4.992;2023-01-26T00:04:52;0.60;99.90
14409;DHT22;7289;50.706;4.992;2023-01-26T00:07:21;0.60;99.90
14409;DHT22;7289;50.706;4.992;2023-01-26T00:09:49;0.60;99.90
14409;DHT22;7289;50.706;4.992;2023-01-26T00:12:17;0.60;99.90
14409;DHT22;7289;50.706;4.992;2023-01-26T00:14:47;0.70;99.90
14409;DHT22;7289;50.706;4.992;2023-01-26T00:17:19;0.70;99.90
14409;DHT22;7289;50.706;4.992;2023-01-26T00:19:55;0.80;99.90
14409;DHT22;7289;50.706;4.992;2023-01-26T00:22:25;0.80;99.90
14409;DHT22;7289;50.706;4.992;2023-01-26T00:24:54;0.80;99.90
14409;DHT22;7289;50.706;4.992;2023-01-26T00:27:22;0.70;99.90
14409;DHT22;7289;50.706;4.992;2023-01-26T00:29:52;0.80;99.90
14409;DHT22;7289;50.706;4.992;2023-01-26T00:32:20;0.80;99.90
14409;DHT22;7289;50.706;4.992;2023-01-26T00:34:48;0.80;99.90
14409;DHT22;7289;50.706;4.992;2023-01-26T00:37:17;0.80;99.90
14409;DHT22;7289;50.706;4.992;2023-01-26T00:39:45;0.90;99.90
14409;DHT22;7289;50.706;4.992;2023-01-26T00:42:13;0.80;99.90
14409;DHT22;7289;50.706;4.992;2023-01-26T00:44:42;0.90;99.90
14409;DHT22;7289;50.706;4.992;2023-01-26T00:47:13;0.80;99.90
14409;DHT22;7289;50.706;4.992;2023-01-26T00:49:42;0.80;99.90
14409;DHT22;7289;50.706;4.992;2023-01-26T00:52:11;0.70;99.90
14409;DHT22;7289;50.706;4.992;2023-01-26T00:54:40;0.70;99.90
14409;DHT22;7289;50.706;4.992;2023-01-26T00:57:08;0.70;99.90
14409;DHT22;7289;50.706;4.992;2023-01-26T00:59:37;0.70;99.90
14409;DHT22;7289;50.706;4.992;2023-01-26T01:02:05;0.80;99.90
14409;DHT22;7289;50.706;4.992;2023-01-26T01:04:35;0.80;99.90
14409;DHT22;7289;50.706;4.992;2023-01-26T01:07:03;0.80;99.90
14409;DHT22;7289;50.706;4.992;2023-01-26T01:09:32;0.80;99.90
14409;DHT22;7289;50.706;4.992;2023-01-26T01:12:00;0.80;99.90
14409;DHT22;7289;50.706;4.992;2023-01-26T01:14:29;0.80;99.90
14409;DHT22;7289;50.706;4.992;2023-01-26T01:16:57;0.80;99.90
14409;DHT22;7289;50.706;4.992;2023-01-26T01:19:26;0.90;99.90
14409;DHT22;7289;50.706;4.992;2023-01-26T01:21:56;0.80;99.90
14409;DHT22;7289;50.706;4.992;2023-01-26T01:24:24;0.80;99.90
14409;DHT22;7289;50.706;4.992;2023-01-26T01:26:52;0.90;99.90
14409;DHT22;7289;50.706;4.992;2023-01-26T01:29:21;0.90;99.90
14409;DHT22;7289;50.706;4.992;2023-01-26T01:31:49;0.90;99.90
14409;DHT22;7289;50.706;4.992;2023-01-26T01:34:17;1.00;99.90
14409;DHT22;7289;50.706;4.992;2023-01-26T01:36:46;0.90;99.90
14409;DHT22;7289;50.706;4.992;2023-01-26T01:39:15;0.90;99.90
14409;DHT22;7289;50.706;4.992;2023-01-26T01:41:43;0.80;99.90
14409;DHT22;7289;50.706;4.992;2023-01-26T01:44:14;0.80;99.90
14409;DHT22;7289;50.706;4.992;2023-01-26T01:46:47;0.90;99.90
14409;DHT22;7289;50.706;4.992;2023-01-26T01:49:19;0.90;99.90
14409;DHT22;7289;50.706;4.992;2023-01-26T01:51:53;0.90;99.90
14409;DHT22;7289;50.706;4.992;2023-01-26T01:54:28;0.90;99.90
14409;DHT22;7289;50.706;4.992;2023-01-26T01:57:01;0.90;99.90
14409;DHT22;7289;50.706;4.992;2023-01-26T01:59:30;0.90;99.90
14409;DHT22;7289;50.706;4.992;2023-01-26T02:01:59;0.90;99.90
14409;DHT22;7289;50.706;4.992;2023-01-26T02:04:28;0.90;99.90
14409;DHT22;7289;50.706;4.992;2023-01-26T02:06:59;0.90;99.90
14409;DHT22;7289;50.706;4.992;2023-01-26T02:09:32;0.90;99.90
14409;DHT22;7289;50.706;4.992;2023-01-26T02:12:25;1.00;99.90
14409;DHT22;7289;50.706;4.992;2023-01-26T02:14:56;1.00;99.90
14409;DHT22;7289;50.706;4.992;2023-01-26T02:17:25;0.90;99.90
14409;DHT22;7289;50.706;4.992;2023-01-26T02:20:01;0.90;99.90
14409;DHT22;7289;50.706;4.992;2023-01-26T02:22:39;0.90;99.90
14409;DHT22;7289;50.706;4.992;2023-01-26T02:25:18;0.90;99.90
14409;DHT22;7289;50.706;4.992;2023-01-26T02:27:52;0.90;99.90
14409;DHT22;7289;50.706;4.992;2023-01-26T02:30:22;1.00;99.90
14409;DHT22;7289;50.706;4.992;2023-01-26T02:32:52;1.00;99.90
14409;DHT22;7289;50.706;4.992;2023-01-26T02:35:21;0.90;99.90
14409;DHT22;7289;50.706;4.992;2023-01-26T02:37:50;1.00;99.90
14409;DHT22;7289;50.706;4.992;2023-01-26T02:40:24;1.00;99.90
14409;DHT22;7289;50.706;4.992;2023-01-26T02:42:58;1.00;99.90
14409;DHT22;7289;50.706;4.992;2023-01-26T02:45:25;1.00;99.90
14409;DHT22;7289;50.706;4.992;2023-01-26T02:47:54;1.00;99.90
14409;DHT22;7289;50.706;4.992;2023-01-26T02:50:24;1.00;99.90
14409;DHT22;7289;50.706;4.992;2023-01-26T02:52:52;1.00;99.90
14409;DHT22;7289;50.706;4.992;2023-01-26T02:55:22;1.10;99.90
14409;DHT22;7289;50.706;4.992;2023-01-26T02:57:52;1.10;99.90
14409;DHT22;7289;50.706;4.992;2023-01-26T03:00:24;1.10;99.90
14409;DHT22;7289;50.706;4.992;2023-01-26T03:02:54;1.20;99.90
14409;DHT22;7289;50.706;4.992;2023-01-26T03:05:25;1.20;99.90
14409;DHT22;7289;50.706;4.992;2023-01-26T03:07:54;1.20;99.90
14409;DHT22;7289;50.706;4.992;2023-01-26T03:10:28;1.30;99.90
14409;DHT22;7289;50.706;4.992;2023-01-26T03:12:57;1.10;99.90
14409;DHT22;7289;50.706;4.992;2023-01-26T03:15:27;1.10;99.90
14409;DHT22;7289;50.706;4.992;2023-01-26T03:18:21;1.10;99.90
14409;DHT22;7289;50.706;4.992;2023-01-26T03:21:11;1.10;99.90
14409;DHT22;7289;50.706;4.992;2023-01-26T03:23:57;1.10;99.90
14409;DHT22;7289;50.706;4.992;2023-01-26T03:26:43;1.10;99.90
14409;DHT22;7289;50.706;4.992;2023-01-26T03:29:31;1.10;99.90
14409;DHT22;7289;50.706;4.992;2023-01-26T03:32:02;1.20;99.90
14409;DHT22;7289;50.706;4.992;2023-01-26T03:34:31;1.10;99.90
14409;DHT22;7289;50.706;4.992;2023-01-26T03:37:00;1.10;99.90
14409;DHT22;7289;50.706;4.992;2023-01-26T03:39:37;1.20;99.90
14409;DHT22;7289;50.706;4.992;2023-01-26T03:42:23;1.20;99.90
14409;DHT22;7289;50.706;4.992;2023-01-26T03:45:10;1.20;99.90
14409;DHT22;7289;50.706;4.992;2023-01-26T03:48:04;1.20;99.90
14409;DHT22;7289;50.706;4.992;2023-01-26T03:50:50;1.20;99.90
14409;DHT22;7289;50.706;4.992;2023-01-26T03:53:36;1.30;99.90
14409;DHT22;7289;50.706;4.992;2023-01-26T03:56:22;1.30;99.90
14409;DHT22;7289;50.706;4.992;2023-01-26T03:58:56;1.30;99.90
14409;DHT22;7289;50.706;4.992;2023-01-26T04:01:36;1.40;99.90
14409;DHT22;7289;50.706;4.992;2023-01-26T04:04:07;1.40;99.90
14409;DHT22;7289;50.706;4.992;2023-01-26T04:06:54;1.40;99.90
14409;DHT22;7289;50.706;4.992;2023-01-26T04:09:45;1.40;99.90
14409;DHT22;7289;50.706;4.992;2023-01-26T04:12:13;1.40;99.90
14409;DHT22;7289;50.706;4.992;2023-01-26T04:14:56;1.50;99.90
14409;DHT22;7289;50.706;4.992;2023-01-26T04:17:42;1.50;99.90
14409;DHT22;7289;50.706;4.992;2023-01-26T04:20:29;1.60;99.90
14409;DHT22;7289;50.706;4.992;2023-01-26T04:23:16;1.50;99.90
14409;DHT22;7289;50.706;4.992;2023-01-26T04:25:46;1.50;99.90
14409;DHT22;7289;50.706;4.992;2023-01-26T04:28:16;1.50;99.90
14409;DHT22;7289;50.706;4.992;2023-01-26T04:30:46;1.50;99.90
14409;DHT22;7289;50.706;4.992;2023-01-26T04:33:14;1.50;99.90
14409;DHT22;7289;50.706;4.992;2023-01-26T04:35:44;1.50;99.90
14409;DHT22;7289;50.706;4.992;2023-01-26T04:38:13;1.50;99.90
14409;DHT22;7289;50.706;4.992;2023-01-26T04:40:41;1.50;99.90
14409;DHT22;7289;50.706;4.992;2023-01-26T04:43:10;1.50;99.90
14409;DHT22;7289;50.706;4.992;2023-01-26T04:45:38;1.50;99.90
14409;DHT22;7289;50.706;4.992;2023-01-26T04:48:06;1.50;99.90
14409;DHT22;7289;50.706;4.992;2023-01-26T04:50:36;1.50;99.90
14409;DHT22;7289;50.706;4.992;2023-01-26T04:53:07;1.50;99.90
14409;DHT22;7289;50.706;4.992;2023-01-26T04:55:36;1.60;99.90
14409;DHT22;7289;50.706;4.992;2023-01-26T04:58:05;1.80;99.90
14409;DHT22;7289;50.706;4.992;2023-01-26T05:00:33;1.60;99.90
14409;DHT22;7289;50.706;4.992;2023-01-26T05:03:03;1.70;99.90
14409;DHT22;7289;50.706;4.992;2023-01-26T05:05:34;1.70;99.90
14409;DHT22;7289;50.706;4.992;2023-01-26T05:08:04;1.60;99.90
14409;DHT22;7289;50.706;4.992;2023-01-26T05:10:35;1.70;99.90
14409;DHT22;7289;50.706;4.992;2023-01-26T05:13:19;1.70;99.90
14409;DHT22;7289;50.706;4.992;2023-01-26T05:16:14;1.60;99.90
14409;DHT22;7289;50.706;4.992;2023-01-26T05:19:05;1.60;99.90
14409;DHT22;7289;50.706;4.992;2023-01-26T05:21:47;1.60;99.90
14409;DHT22;7289;50.706;4.992;2023-01-26T05:24:16;1.60;99.90
14409;DHT22;7289;50.706;4.992;2023-01-26T05:27:01;1.50;99.90
14409;DHT22;7289;50.706;4.992;2023-01-26T05:29:51;1.60;99.90
14409;DHT22;7289;50.706;4.992;2023-01-26T05:32:21;1.60;99.90
14409;DHT22;7289;50.706;4.992;2023-01-26T05:34:50;1.50;99.90
14409;DHT22;7289;50.706;4.992;2023-01-26T05:37:19;1.60;99.90
14409;DHT22;7289;50.706;4.992;2023-01-26T05:39:47;1.60;99.90
14409;DHT22;7289;50.706;4.992;2023-01-26T05:42:17;1.50;99.90
14409;DHT22;7289;50.706;4.992;2023-01-26T05:45:05;1.60;99.90
14409;DHT22;7289;50.706;4.992;2023-01-26T05:47:36;1.60;99.90
14409;DHT22;7289;50.706;4.992;2023-01-26T05:50:05;1.60;99.90
14409;DHT22;7289;50.706;4.992;2023-01-26T05:52:34;1.70;99.90
14409;DHT22;7289;50.706;4.992;2023-01-26T05:55:04;1.70;99.90
14409;DHT22;7289;50.706;4.992;2023-01-26T05:57:34;1.70;99.90
14409;DHT22;7289;50.706;4.992;2023-01-26T06:00:08;1.70;99.90
14409;DHT22;7289;50.706;4.992;2023-01-26T06:02:41;1.70;99.90
14409;DHT22;7289;50.706;4.992;2023-01-26T06:05:12;1.80;99.90
14409;DHT22;7289;50.706;4.992;2023-01-26T06:07:43;1.80;99.90
14409;DHT22;7289;50.706;4.992;2023-01-26T06:10:18;1.80;99.90
14409;DHT22;7289;50.706;4.992;2023-01-26T06:13:17;1.90;99.90
14409;DHT22;7289;50.706;4.992;2023-01-26T06:15:51;1.80;99.90
14409;DHT22;7289;50.706;4.992;2023-01-26T06:18:24;1.80;99.90
14409;DHT22;7289;50.706;4.992;2023-01-26T06:20:58;1.90;99.90
14409;DHT22;7289;50.706;4.992;2023-01-26T06:23:26;1.80;99.90
14409;DHT22;7289;50.706;4.992;2023-01-26T06:25:58;1.90;99.90
14409;DHT22;7289;50.706;4.992;2023-01-26T06:28:29;1.90;99.90
14409;DHT22;7289;50.706;4.992;2023-01-26T06:30:59;1.90;99.90
14409;DHT22;7289;50.706;4.992;2023-01-26T06:33:28;1.90;99.90
14409;DHT22;7289;50.706;4.992;2023-01-26T06:36:00;1.90;99.90
14409;DHT22;7289;50.706;4.992;2023-01-26T06:38:29;1.90;99.90
14409;DHT22;7289;50.706;4.992;2023-01-26T06:40:59;1.90;99.90
14409;DHT22;7289;50.706;4.992;2023-01-26T06:43:32;1.90;99.90
14409;DHT22;7289;50.706;4.992;2023-01-26T06:46:01;1.90;99.90
14409;DHT22;7289;50.706;4.992;2023-01-26T06:48:31;2.00;99.90
14409;DHT22;7289;50.706;4.992;2023-01-26T06:51:04;2.00;99.90
14409;DHT22;7289;50.706;4.992;2023-01-26T06:53:54;1.90;99.90
14409;DHT22;7289;50.706;4.992;2023-01-26T06:56:29;1.90;99.90
14409;DHT22;7289;50.706;4.992;2023-01-26T06:59:27;2.00;99.90
14409;DHT22;7289;50.706;4.992;2023-01-26T07:02:16;2.00;99.90
14409;DHT22;7289;50.706;4.992;2023-01-26T07:04:45;1.90;99.90
14409;DHT22;7289;50.706;4.992;2023-01-26T07:07:14;1.80;99.90
14409;DHT22;7289;50.706;4.992;2023-01-26T07:09:42;1.80;99.90
14409;DHT22;7289;50.706;4.992;2023-01-26T07:12:10;1.80;99.90
14409;DHT22;7289;50.706;4.992;2023-01-26T07:14:40;1.90;99.90
14409;DHT22;7289;50.706;4.992;2023-01-26T07:17:08;1.90;99.90
14409;DHT22;7289;50.706;4.992;2023-01-26T07:19:37;2.00;99.90
14409;DHT22;7289;50.706;4.992;2023-01-26T07:22:05;2.00;99.90
14409;DHT22;7289;50.706;4.992;2023-01-26T07:24:34;2.00;99.90
14409;DHT22;7289;50.706;4.992;2023-01-26T07:27:02;1.90;99.90
14409;DHT22;7289;50.706;4.992;2023-01-26T07:29:30;1.80;99.90
14409;DHT22;7289;50.706;4.992;2023-01-26T07:32:00;1.80;99.90
14409;DHT22;7289;50.706;4.992;2023-01-26T07:34:28;1.90;99.90
14409;DHT22;7289;50.706;4.992;2023-01-26T07:36:57;2.10;99.90
14409;DHT22;7289;50.706;4.992;2023-01-26T07:39:25;2.00;99.90
14409;DHT22;7289;50.706;4.992;2023-01-26T07:41:53;2.00;99.90
14409;DHT22;7289;50.706;4.992;2023-01-26T07:44:37;2.00;99.90
14409;DHT22;7289;50.706;4.992;2023-01-26T07:47:07;2.00;99.90
14409;DHT22;7289;50.706;4.992;2023-01-26T07:49:36;2.00;99.90
14409;DHT22;7289;50.706;4.992;2023-01-26T07:52:04;2.00;99.90
14409;DHT22;7289;50.706;4.992;2023-01-26T07:54:33;1.90;99.90
14409;DHT22;7289;50.706;4.992;2023-01-26T07:57:02;1.70;99.90
14409;DHT22;7289;50.706;4.992;2023-01-26T07:59:33;1.70;99.90
14409;DHT22;7289;50.706;4.992;2023-01-26T08:02:01;1.70;99.90
14409;DHT22;7289;50.706;4.992;2023-01-26T08:04:31;1.80;99.90
14409;DHT22;7289;50.706;4.992;2023-01-26T08:07:00;1.70;99.90
14409;DHT22;7289;50.706;4.992;2023-01-26T08:09:28;1.70;99.90
14409;DHT22;7289;50.706;4.992;2023-01-26T08:11:57;1.60;99.90
14409;DHT22;7289;50.706;4.992;2023-01-26T08:14:25;1.50;99.90
14409;DHT22;7289;50.706;4.992;2023-01-26T08:17:11;1.50;99.90
14409;DHT22;7289;50.706;4.992;2023-01-26T08:19:40;1.50;99.90
14409;DHT22;7289;50.706;4.992;2023-01-26T08:22:09;1.60;99.90
14409;DHT22;7289;50.706;4.992;2023-01-26T08:24:37;1.90;99.90
14409;DHT22;7289;50.706;4.992;2023-01-26T08:27:05;1.70;99.90
14409;DHT22;7289;50.706;4.992;2023-01-26T08:29:34;1.80;99.90
14409;DHT22;7289;50.706;4.992;2023-01-26T08:32:02;2.00;99.90
14409;DHT22;7289;50.706;4.992;2023-01-26T08:34:31;1.80;99.90
14409;DHT22;7289;50.706;4.992;2023-01-26T08:37:01;1.80;99.90
14409;DHT22;7289;50.706;4.992;2023-01-26T08:39:31;2.00;99.90
14409;DHT22;7289;50.706;4.992;2023-01-26T08:41:59;2.00;99.90
14409;DHT22;7289;50.706;4.992;2023-01-26T08:44:27;2.00;99.90
14409;DHT22;7289;50.706;4.992;2023-01-26T08:46:56;2.00;99.90
14409;DHT22;7289;50.706;4.992;2023-01-26T08:49:25;1.80;99.90
14409;DHT22;7289;50.706;4.992;2023-01-26T08:51:53;1.70;99.90
14409;DHT22;7289;50.706;4.992;2023-01-26T08:54:23;1.70;99.90
14409;DHT22;7289;50.706;4.992;2023-01-26T08:56:51;1.70;99.90
14409;DHT22;7289;50.706;4.992;2023-01-26T08:59:21;1.70;99.90
14409;DHT22;7289;50.706;4.992;2023-01-26T09:01:49;1.90;99.90
14409;DHT22;7289;50.706;4.992;2023-01-26T09:04:17;2.00;99.90
14409;DHT22;7289;50.706;4.992;2023-01-26T09:06:46;2.10;99.90
14409;DHT22;7289;50.706;4.992;2023-01-26T09:09:15;2.10;99.90
14409;DHT22;7289;50.706;4.992;2023-01-26T09:11:44;2.30;99.90
14409;DHT22;7289;50.706;4.992;2023-01-26T09:14:13;2.30;99.90
14409;DHT22;7289;50.706;4.992;2023-01-26T09:16:41;2.50;99.90
14409;DHT22;7289;50.706;4.992;2023-01-26T09:19:09;2.40;99.90
14409;DHT22;7289;50.706;4.992;2023-01-26T09:21:37;2.40;99.90
14409;DHT22;7289;50.706;4.992;2023-01-26T09:24:06;2.50;99.90
14409;DHT22;7289;50.706;4.992;2023-01-26T09:26:35;2.40;99.90
14409;DHT22;7289;50.706;4.992;2023-01-26T09:29:04;2.40;99.90
14409;DHT22;7289;50.706;4.992;2023-01-26T09:31:33;2.60;99.90
14409;DHT22;7289;50.706;4.992;2023-01-26T09:34:01;2.70;99.90
14409;DHT22;7289;50.706;4.992;2023-01-26T09:36:29;2.60;99.90
14409;DHT22;7289;50.706;4.992;2023-01-26T09:38:58;2.60;99.90
14409;DHT22;7289;50.706;4.992;2023-01-26T09:41:57;2.70;99.90
14409;DHT22;7289;50.706;4.992;2023-01-26T09:44:39;2.80;99.90
14409;DHT22;7289;50.706;4.992;2023-01-26T09:47:15;2.90;99.90
14409;DHT22;7289;50.706;4.992;2023-01-26T09:49:48;2.90;99.90
14409;DHT22;7289;50.706;4.992;2023-01-26T09:52:23;2.80;99.90
14409;DHT22;7289;50.706;4.992;2023-01-26T09:54:54;2.90;99.90
14409;DHT22;7289;50.706;4.992;2023-01-26T09:57:28;2.90;99.90
14409;DHT22;7289;50.706;4.992;2023-01-26T10:00:06;3.20;99.90
14409;DHT22;7289;50.706;4.992;2023-01-26T10:02:45;3.20;99.90
14409;DHT22;7289;50.706;4.992;2023-01-26T10:05:24;3.00;99.90
14409;DHT22;7289;50.706;4.992;2023-01-26T10:08:01;2.90;99.90
14409;DHT22;7289;50.706;4.992;2023-01-26T10:10:35;3.00;99.90
14409;DHT22;7289;50.706;4.992;2023-01-26T10:13:05;3.00;99.90
14409;DHT22;7289;50.706;4.992;2023-01-26T10:15:39;3.00;99.90
14409;DHT22;7289;50.706;4.992;2023-01-26T10:18:16;3.00;99.90
14409;DHT22;7289;50.706;4.992;2023-01-26T10:20:49;2.80;99.90
14409;DHT22;7289;50.706;4.992;2023-01-26T10:23:21;2.90;99.90
14409;DHT22;7289;50.706;4.992;2023-01-26T10:25:52;3.10;99.90
14409;DHT22;7289;50.706;4.992;2023-01-26T10:28:27;3.20;99.90
14409;DHT22;7289;50.706;4.992;2023-01-26T10:30:57;3.20;99.90
14409;DHT22;7289;50.706;4.992;2023-01-26T10:33:30;3.30;99.90
14409;DHT22;7289;50.706;4.992;2023-01-26T10:36:00;3.50;99.90
14409;DHT22;7289;50.706;4.992;2023-01-26T10:38:39;3.60;99.90
14409;DHT22;7289;50.706;4.992;2023-01-26T10:41:22;3.50;99.90
14409;DHT22;7289;50.706;4.992;2023-01-26T10:43:52;3.40;99.90
14409;DHT22;7289;50.706;4.992;2023-01-26T10:46:29;3.60;99.90
14409;DHT22;7289;50.706;4.992;2023-01-26T10:48:58;3.40;99.90
14409;DHT22;7289;50.706;4.992;2023-01-26T10:51:29;3.40;99.90
14409;DHT22;7289;50.706;4.992;2023-01-26T10:54:24;3.40;99.90
14409;DHT22;7289;50.706;4.992;2023-01-26T10:56:54;3.50;99.90
14409;DHT22;7289;50.706;4.992;2023-01-26T10:59:32;3.60;99.90
14409;DHT22;7289;50.706;4.992;2023-01-26T11:02:23;3.70;99.90
14409;DHT22;7289;50.706;4.992;2023-01-26T11:05:14;3.70;99.90
14409;DHT22;7289;50.706;4.992;2023-01-26T11:07:43;3.50;99.90
14409;DHT22;7289;50.706;4.992;2023-01-26T11:10:24;3.60;99.90
14409;DHT22;7289;50.706;4.992;2023-01-26T11:13:11;3.30;99.90
14409;DHT22;7289;50.706;4.992;2023-01-26T11:15:42;3.40;99.90
14409;DHT22;7289;50.706;4.992;2023-01-26T11:18:20;3.60;99.90
14409;DHT22;7289;50.706;4.992;2023-01-26T11:20:57;3.50;99.90
14409;DHT22;7289;50.706;4.992;2023-01-26T11:23:40;3.20;99.90
14409;DHT22;7289;50.706;4.992;2023-01-26T11:29:40;3.40;99.90
14409;DHT22;7289;50.706;4.992;2023-01-26T11:32:16;3.50;99.90
14409;DHT22;7289;50.706;4.992;2023-01-26T11:34:56;3.30;99.90
14409;DHT22;7289;50.706;4.992;2023-01-26T11:37:37;3.30;99.90
14409;DHT22;7289;50.706;4.992;2023-01-26T11:40:23;3.30;99.90
14409;DHT22;7289;50.706;4.992;2023-01-26T11:43:26;3.40;99.90
14409;DHT22;7289;50.706;4.992;2023-01-26T11:49:04;3.60;99.90
14409;DHT22;7289;50.706;4.992;2023-01-26T11:51:50;3.70;99.90
14409;DHT22;7289;50.706;4.992;2023-01-26T11:54:51;3.70;99.90
14409;DHT22;7289;50.706;4.992;2023-01-26T11:57:29;3.50;99.90
14409;DHT22;7289;50.706;4.992;2023-01-26T12:00:03;3.50;99.90
14409;DHT22;7289;50.706;4.992;2023-01-26T12:02:42;3.60;99.90
14409;DHT22;7289;50.706;4.992;2023-01-26T12:05:14;3.80;99.90
14409;DHT22;7289;50.706;4.992;2023-01-26T12:07:52;3.70;99.90
14409;DHT22;7289;50.706;4.992;2023-01-26T12:10:24;3.60;99.90
14409;DHT22;7289;50.706;4.992;2023-01-26T12:13:00;3.60;99.90
14409;DHT22;7289;50.706;4.992;2023-01-26T12:15:33;3.70;99.90
14409;DHT22;7289;50.706;4.992;2023-01-26T12:18:09;3.80;99.90
14409;DHT22;7289;50.706;4.992;2023-01-26T12:20:43;3.70;99.90
14409;DHT22;7289;50.706;4.992;2023-01-26T12:23:24;3.80;99.90
14409;DHT22;7289;50.706;4.992;2023-01-26T12:25:57;3.80;99.90
14409;DHT22;7289;50.706;4.992;2023-01-26T12:28:31;3.90;99.90
14409;DHT22;7289;50.706;4.992;2023-01-26T12:31:05;3.90;99.90
14409;DHT22;7289;50.706;4.992;2023-01-26T12:33:35;3.70;99.90
14409;DHT22;7289;50.706;4.992;2023-01-26T12:36:25;3.80;99.90
14409;DHT22;7289;50.706;4.992;2023-01-26T12:39:12;3.90;99.90
14409;DHT22;7289;50.706;4.992;2023-01-26T12:42:05;4.00;99.90
14409;DHT22;7289;50.706;4.992;2023-01-26T12:44:38;4.00;99.90
14409;DHT22;7289;50.706;4.992;2023-01-26T12:47:13;4.20;99.90
14409;DHT22;7289;50.706;4.992;2023-01-26T12:49:50;4.10;99.90
14409;DHT22;7289;50.706;4.992;2023-01-26T12:52:26;4.20;99.90
14409;DHT22;7289;50.706;4.992;2023-01-26T12:55:01;4.20;99.90
14409;DHT22;7289;50.706;4.992;2023-01-26T12:57:36;4.10;99.90
14409;DHT22;7289;50.706;4.992;2023-01-26T13:00:17;4.00;99.90
14409;DHT22;7289;50.706;4.992;2023-01-26T13:02:48;4.00;99.90
14409;DHT22;7289;50.706;4.992;2023-01-26T13:05:27;4.00;99.90
14409;DHT22;7289;50.706;4.992;2023-01-26T13:07:55;4.00;99.90
14409;DHT22;7289;50.706;4.992;2023-01-26T13:10:43;4.10;99.90
14409;DHT22;7289;50.706;4.992;2023-01-26T13:13:26;4.10;99.90
14409;DHT22;7289;50.706;4.992;2023-01-26T13:16:33;4.00;99.90
14409;DHT22;7289;50.706;4.992;2023-01-26T13:19:04;3.80;99.90
14409;DHT22;7289;50.706;4.992;2023-01-26T13:21:41;3.80;99.90
14409;DHT22;7289;50.706;4.992;2023-01-26T13:24:40;3.80;99.90
14409;DHT22;7289;50.706;4.992;2023-01-26T13:27:34;3.70;99.90
14409;DHT22;7289;50.706;4.992;2023-01-26T13:30:27;3.80;99.90
14409;DHT22;7289;50.706;4.992;2023-01-26T13:33:10;3.70;99.90
14409;DHT22;7289;50.706;4.992;2023-01-26T13:35:39;3.80;99.90
14409;DHT22;7289;50.706;4.992;2023-01-26T13:38:16;3.90;99.90
14409;DHT22;7289;50.706;4.992;2023-01-26T13:40:46;4.00;99.90
14409;DHT22;7289;50.706;4.992;2023-01-26T13:43:24;4.10;99.90
14409;DHT22;7289;50.706;4.992;2023-01-26T13:46:10;4.20;99.90
14409;DHT22;7289;50.706;4.992;2023-01-26T13:48:43;4.00;99.90
14409;DHT22;7289;50.706;4.992;2023-01-26T13:51:14;3.90;99.90
14409;DHT22;7289;50.706;4.992;2023-01-26T13:53:47;3.90;99.90
14409;DHT22;7289;50.706;4.992;2023-01-26T13:56:23;3.90;99.90
14409;DHT22;7289;50.706;4.992;2023-01-26T13:58:53;3.80;99.90
14409;DHT22;7289;50.706;4.992;2023-01-26T14:01:29;3.90;99.90
14409;DHT22;7289;50.706;4.992;2023-01-26T14:04:10;3.90;99.90
14409;DHT22;7289;50.706;4.992;2023-01-26T14:06:41;4.00;99.90
14409;DHT22;7289;50.706;4.992;2023-01-26T14:09:12;4.00;99.90
14409;DHT22;7289;50.706;4.992;2023-01-26T14:11:41;3.90;99.90
14409;DHT22;7289;50.706;4.992;2023-01-26T14:14:20;4.00;99.90
14409;DHT22;7289;50.706;4.992;2023-01-26T14:16:50;4.10;99.90
14409;DHT22;7289;50.706;4.992;2023-01-26T14:19:20;4.10;99.90
14409;DHT22;7289;50.706;4.992;2023-01-26T14:21:50;4.20;99.90
14409;DHT22;7289;50.706;4.992;2023-01-26T14:24:25;4.30;99.90
14409;DHT22;7289;50.706;4.992;2023-01-26T14:26:54;4.40;99.90
14409;DHT22;7289;50.706;4.992;2023-01-26T14:29:25;4.50;99.90
14409;DHT22;7289;50.706;4.992;2023-01-26T14:31:56;4.40;99.90
14409;DHT22;7289;50.706;4.992;2023-01-26T14:34:27;4.40;99.90
14409;DHT22;7289;50.706;4.992;2023-01-26T14:37:09;4.40;99.90
14409;DHT22;7289;50.706;4.992;2023-01-26T14:39:39;4.40;99.90
14409;DHT22;7289;50.706;4.992;2023-01-26T14:42:11;4.60;99.90
14409;DHT22;7289;50.706;4.992;2023-01-26T14:44:42;4.50;99.90
14409;DHT22;7289;50.706;4.992;2023-01-26T14:47:15;4.70;99.90
14409;DHT22;7289;50.706;4.992;2023-01-26T14:49:48;4.80;99.90
14409;DHT22;7289;50.706;4.992;2023-01-26T14:52:21;4.80;99.90
14409;DHT22;7289;50.706;4.992;2023-01-26T14:54:51;5.00;99.90
14409;DHT22;7289;50.706;4.992;2023-01-26T14:57:22;5.00;99.90
14409;DHT22;7289;50.706;4.992;2023-01-26T14:59:54;5.10;99.90
14409;DHT22;7289;50.706;4.992;2023-01-26T15:02:25;5.20;99.90
14409;DHT22;7289;50.706;4.992;2023-01-26T15:04:55;5.20;99.90
14409;DHT22;7289;50.706;4.992;2023-01-26T15:07:37;5.20;99.90
14409;DHT22;7289;50.706;4.992;2023-01-26T15:10:33;5.30;99.90
14409;DHT22;7289;50.706;4.992;2023-01-26T15:13:06;5.30;99.90
14409;DHT22;7289;50.706;4.992;2023-01-26T15:15:38;5.40;99.90
14409;DHT22;7289;50.706;4.992;2023-01-26T15:18:18;5.50;99.90
14409;DHT22;7289;50.706;4.992;2023-01-26T15:20:59;5.60;99.90
14409;DHT22;7289;50.706;4.992;2023-01-26T15:23:30;5.60;99.90
14409;DHT22;7289;50.706;4.992;2023-01-26T15:26:07;5.70;99.90
14409;DHT22;7289;50.706;4.992;2023-01-26T15:28:36;5.70;99.90
14409;DHT22;7289;50.706;4.992;2023-01-26T15:31:07;5.70;99.90
14409;DHT22;7289;50.706;4.992;2023-01-26T15:33:48;5.60;99.90
14409;DHT22;7289;50.706;4.992;2023-01-26T15:36:28;5.60;99.90
14409;DHT22;7289;50.706;4.992;2023-01-26T15:39:08;5.60;99.90
14409;DHT22;7289;50.706;4.992;2023-01-26T15:41:37;5.60;99.90
14409;DHT22;7289;50.706;4.992;2023-01-26T15:44:11;5.70;99.90
14409;DHT22;7289;50.706;4.992;2023-01-26T15:46:42;5.70;99.90
14409;DHT22;7289;50.706;4.992;2023-01-26T15:49:10;5.70;99.90
14409;DHT22;7289;50.706;4.992;2023-01-26T15:51:39;5.60;99.90
14409;DHT22;7289;50.706;4.992;2023-01-26T15:54:09;5.70;99.90
14409;DHT22;7289;50.706;4.992;2023-01-26T15:56:37;5.70;99.90
14409;DHT22;7289;50.706;4.992;2023-01-26T15:59:06;5.60;99.90
14409;DHT22;7289;50.706;4.992;2023-01-26T16:01:34;5.70;99.90
14409;DHT22;7289;50.706;4.992;2023-01-26T16:04:04;5.60;99.90
14409;DHT22;7289;50.706;4.992;2023-01-26T16:06:32;5.60;99.90
14409;DHT22;7289;50.706;4.992;2023-01-26T16:09:01;5.60;99.90
14409;DHT22;7289;50.706;4.992;2023-01-26T16:11:32;5.70;99.90
14409;DHT22;7289;50.706;4.992;2023-01-26T16:14:01;5.70;99.90
14409;DHT22;7289;50.706;4.992;2023-01-26T16:16:30;5.70;99.90
14409;DHT22;7289;50.706;4.992;2023-01-26T16:18:59;5.60;99.90
14409;DHT22;7289;50.706;4.992;2023-01-26T16:21:32;5.60;99.90
14409;DHT22;7289;50.706;4.992;2023-01-26T16:24:02;5.30;99.90
14409;DHT22;7289;50.706;4.992;2023-01-26T16:26:31;5.30;99.90
14409;DHT22;7289;50.706;4.992;2023-01-26T16:28:59;5.40;99.90
14409;DHT22;7289;50.706;4.992;2023-01-26T16:31:30;5.40;99.90
14409;DHT22;7289;50.706;4.992;2023-01-26T16:33:59;5.50;99.90
14409;DHT22;7289;50.706;4.992;2023-01-26T16:36:29;5.50;99.90
14409;DHT22;7289;50.706;4.992;2023-01-26T16:38:57;5.40;99.90
14409;DHT22;7289;50.706;4.992;2023-01-26T16:41:27;5.50;99.90
14409;DHT22;7289;50.706;4.992;2023-01-26T16:43:57;5.40;99.90
14409;DHT22;7289;50.706;4.992;2023-01-26T16:46:27;5.40;99.90
14409;DHT22;7289;50.706;4.992;2023-01-26T16:48:56;5.30;99.90
14409;DHT22;7289;50.706;4.992;2023-01-26T16:51:26;5.30;99.90